Terminal Aerodrome Forecast
Issued by NWS Mt. Holly, NJ

Home | Current Version | Previous Version | Text Only | Print | Product List | Glossary On
Versions: 1 2 3 4 5 6 7 8 9 10 11 12 13 14 15 16 17 18 19
374
FTUS41 KPHI 261754
TAFRDG
TAF
KRDG 261754Z 2618/2718 31009KT P6SM SCT050 BKN170
     FM270000 VRB02KT P6SM BKN250
      TEMPO 2708/2711 4SM BR
     FM271300 32005KT P6SM FEW030 BKN200
     FM271700 28007KT P6SM FEW050 BKN150=

USA.gov is the U.S. government's official web portal to all federal, state and local government web resources and services.